sensor_id;sensor_type;location;lat;lon;timestamp;P1;durP1;ratioP1;P2;durP2;ratioP2
2624;SDS011;1322;53.256;10.386;2024-02-26T00:01:39;11.27;;;8.73;;
2624;SDS011;1322;53.256;10.386;2024-02-26T00:04:04;9.77;;;7.87;;
2624;SDS011;1322;53.256;10.386;2024-02-26T00:06:30;9.33;;;7.20;;
2624;SDS011;1322;53.256;10.386;2024-02-26T00:08:56;8.87;;;6.30;;
2624;SDS011;1322;53.256;10.386;2024-02-26T00:11:22;7.77;;;5.10;;
2624;SDS011;1322;53.256;10.386;2024-02-26T00:13:47;6.00;;;4.80;;
2624;SDS011;1322;53.256;10.386;2024-02-26T00:16:13;7.03;;;4.53;;
2624;SDS011;1322;53.256;10.386;2024-02-26T00:18:39;7.43;;;4.77;;
2624;SDS011;1322;53.256;10.386;2024-02-26T00:21:05;5.97;;;4.40;;
2624;SDS011;1322;53.256;10.386;2024-02-26T00:23:30;5.83;;;5.23;;
2624;SDS011;1322;53.256;10.386;2024-02-26T00:25:56;8.17;;;5.60;;
2624;SDS011;1322;53.256;10.386;2024-02-26T00:28:23;7.03;;;5.07;;
2624;SDS011;1322;53.256;10.386;2024-02-26T00:30:49;7.80;;;5.77;;
2624;SDS011;1322;53.256;10.386;2024-02-26T00:33:20;6.90;;;5.67;;
2624;SDS011;1322;53.256;10.386;2024-02-26T00:35:46;7.27;;;5.60;;
2624;SDS011;1322;53.256;10.386;2024-02-26T00:38:12;6.80;;;5.40;;
2624;SDS011;1322;53.256;10.386;2024-02-26T00:40:37;6.10;;;5.00;;
2624;SDS011;1322;53.256;10.386;2024-02-26T00:43:03;6.27;;;4.60;;
2624;SDS011;1322;53.256;10.386;2024-02-26T00:45:29;8.00;;;6.50;;
2624;SDS011;1322;53.256;10.386;2024-02-26T00:47:54;6.60;;;4.70;;
2624;SDS011;1322;53.256;10.386;2024-02-26T00:50:20;5.17;;;4.67;;
2624;SDS011;1322;53.256;10.386;2024-02-26T00:52:46;6.20;;;5.20;;
2624;SDS011;1322;53.256;10.386;2024-02-26T00:55:12;8.90;;;6.27;;
2624;SDS011;1322;53.256;10.386;2024-02-26T00:57:37;8.50;;;5.90;;
2624;SDS011;1322;53.256;10.386;2024-02-26T01:00:03;8.03;;;6.60;;
2624;SDS011;1322;53.256;10.386;2024-02-26T01:02:29;6.23;;;5.13;;
2624;SDS011;1322;53.256;10.386;2024-02-26T01:04:55;6.37;;;5.13;;
2624;SDS011;1322;53.256;10.386;2024-02-26T01:07:21;5.70;;;5.00;;
2624;SDS011;1322;53.256;10.386;2024-02-26T01:09:46;7.30;;;4.80;;
2624;SDS011;1322;53.256;10.386;2024-02-26T01:12:12;5.90;;;5.30;;
2624;SDS011;1322;53.256;10.386;2024-02-26T01:14:38;6.20;;;5.50;;
2624;SDS011;1322;53.256;10.386;2024-02-26T01:17:03;11.03;;;5.40;;
2624;SDS011;1322;53.256;10.386;2024-02-26T01:19:30;5.90;;;5.37;;
2624;SDS011;1322;53.256;10.386;2024-02-26T01:21:56;6.80;;;5.50;;
2624;SDS011;1322;53.256;10.386;2024-02-26T01:24:21;8.30;;;5.73;;
2624;SDS011;1322;53.256;10.386;2024-02-26T01:26:47;9.27;;;6.20;;
2624;SDS011;1322;53.256;10.386;2024-02-26T01:29:12;8.80;;;5.77;;
2624;SDS011;1322;53.256;10.386;2024-02-26T01:31:38;9.00;;;6.20;;
2624;SDS011;1322;53.256;10.386;2024-02-26T01:34:03;8.37;;;6.50;;
2624;SDS011;1322;53.256;10.386;2024-02-26T01:36:29;9.97;;;6.87;;
2624;SDS011;1322;53.256;10.386;2024-02-26T01:38:55;8.93;;;7.17;;
2624;SDS011;1322;53.256;10.386;2024-02-26T01:41:20;9.10;;;6.77;;
2624;SDS011;1322;53.256;10.386;2024-02-26T01:43:46;8.10;;;6.83;;
2624;SDS011;1322;53.256;10.386;2024-02-26T01:46:12;9.93;;;7.13;;
2624;SDS011;1322;53.256;10.386;2024-02-26T01:48:42;7.63;;;6.87;;
2624;SDS011;1322;53.256;10.386;2024-02-26T01:51:09;7.50;;;5.70;;
2624;SDS011;1322;53.256;10.386;2024-02-26T01:53:37;9.67;;;7.33;;
2624;SDS011;1322;53.256;10.386;2024-02-26T01:56:03;8.60;;;6.80;;
2624;SDS011;1322;53.256;10.386;2024-02-26T01:58:29;12.47;;;7.53;;
2624;SDS011;1322;53.256;10.386;2024-02-26T02:00:56;7.43;;;6.70;;
2624;SDS011;1322;53.256;10.386;2024-02-26T02:03:23;9.17;;;7.80;;
2624;SDS011;1322;53.256;10.386;2024-02-26T02:05:49;8.40;;;6.70;;
2624;SDS011;1322;53.256;10.386;2024-02-26T02:08:15;12.33;;;6.60;;
2624;SDS011;1322;53.256;10.386;2024-02-26T02:10:41;6.17;;;5.57;;
2624;SDS011;1322;53.256;10.386;2024-02-26T02:13:07;7.67;;;6.37;;
2624;SDS011;1322;53.256;10.386;2024-02-26T02:15:33;7.20;;;5.50;;
2624;SDS011;1322;53.256;10.386;2024-02-26T02:17:58;7.13;;;5.37;;
2624;SDS011;1322;53.256;10.386;2024-02-26T02:20:33;6.60;;;4.90;;
2624;SDS011;1322;53.256;10.386;2024-02-26T02:22:59;7.70;;;5.77;;
2624;SDS011;1322;53.256;10.386;2024-02-26T02:25:25;6.07;;;5.40;;
2624;SDS011;1322;53.256;10.386;2024-02-26T02:27:51;5.63;;;4.60;;
2624;SDS011;1322;53.256;10.386;2024-02-26T02:30:20;7.33;;;5.70;;
2624;SDS011;1322;53.256;10.386;2024-02-26T02:32:49;7.40;;;5.60;;
2624;SDS011;1322;53.256;10.386;2024-02-26T02:35:14;21.50;;;16.00;;
2624;SDS011;1322;53.256;10.386;2024-02-26T02:37:40;11.47;;;10.27;;
2624;SDS011;1322;53.256;10.386;2024-02-26T02:40:06;8.80;;;6.63;;
2624;SDS011;1322;53.256;10.386;2024-02-26T02:42:32;7.83;;;6.73;;
2624;SDS011;1322;53.256;10.386;2024-02-26T02:44:58;9.83;;;6.87;;
2624;SDS011;1322;53.256;10.386;2024-02-26T02:47:23;8.17;;;7.27;;
2624;SDS011;1322;53.256;10.386;2024-02-26T02:49:49;9.80;;;7.50;;
2624;SDS011;1322;53.256;10.386;2024-02-26T02:52:15;8.90;;;7.67;;
2624;SDS011;1322;53.256;10.386;2024-02-26T02:54:40;9.73;;;8.40;;
2624;SDS011;1322;53.256;10.386;2024-02-26T02:57:07;9.77;;;7.37;;
2624;SDS011;1322;53.256;10.386;2024-02-26T02:59:34;5.07;;;4.57;;
2624;SDS011;1322;53.256;10.386;2024-02-26T03:02:01;6.07;;;5.20;;
2624;SDS011;1322;53.256;10.386;2024-02-26T03:04:26;6.40;;;4.77;;
2624;SDS011;1322;53.256;10.386;2024-02-26T03:06:52;4.97;;;4.53;;
2624;SDS011;1322;53.256;10.386;2024-02-26T03:09:17;5.37;;;4.80;;
2624;SDS011;1322;53.256;10.386;2024-02-26T03:11:43;5.97;;;5.40;;
2624;SDS011;1322;53.256;10.386;2024-02-26T03:14:09;10.33;;;6.80;;
2624;SDS011;1322;53.256;10.386;2024-02-26T03:16:34;5.90;;;5.20;;
2624;SDS011;1322;53.256;10.386;2024-02-26T03:19:00;7.17;;;5.10;;
2624;SDS011;1322;53.256;10.386;2024-02-26T03:21:26;5.73;;;4.97;;
2624;SDS011;1322;53.256;10.386;2024-02-26T03:23:52;5.20;;;4.70;;
2624;SDS011;1322;53.256;10.386;2024-02-26T03:26:18;5.63;;;5.13;;
2624;SDS011;1322;53.256;10.386;2024-02-26T03:28:44;6.77;;;5.10;;
2624;SDS011;1322;53.256;10.386;2024-02-26T03:31:09;6.23;;;4.90;;
2624;SDS011;1322;53.256;10.386;2024-02-26T03:33:36;5.63;;;4.80;;
2624;SDS011;1322;53.256;10.386;2024-02-26T03:36:01;5.93;;;4.70;;
2624;SDS011;1322;53.256;10.386;2024-02-26T03:38:28;5.57;;;4.73;;
2624;SDS011;1322;53.256;10.386;2024-02-26T03:40:54;5.53;;;4.87;;
2624;SDS011;1322;53.256;10.386;2024-02-26T03:43:20;5.40;;;4.90;;
2624;SDS011;1322;53.256;10.386;2024-02-26T03:45:46;7.27;;;6.53;;
2624;SDS011;1322;53.256;10.386;2024-02-26T03:48:12;6.93;;;5.70;;
2624;SDS011;1322;53.256;10.386;2024-02-26T03:50:38;6.20;;;5.60;;
2624;SDS011;1322;53.256;10.386;2024-02-26T03:53:03;6.97;;;6.07;;
2624;SDS011;1322;53.256;10.386;2024-02-26T03:55:29;7.77;;;6.00;;
2624;SDS011;1322;53.256;10.386;2024-02-26T03:57:55;7.80;;;5.40;;
2624;SDS011;1322;53.256;10.386;2024-02-26T04:00:21;5.83;;;5.20;;
2624;SDS011;1322;53.256;10.386;2024-02-26T04:02:47;6.97;;;5.67;;
2624;SDS011;1322;53.256;10.386;2024-02-26T04:05:13;7.50;;;6.10;;
2624;SDS011;1322;53.256;10.386;2024-02-26T04:07:39;14.67;;;5.20;;
2624;SDS011;1322;53.256;10.386;2024-02-26T04:10:12;7.57;;;5.57;;
2624;SDS011;1322;53.256;10.386;2024-02-26T04:12:38;7.00;;;5.60;;
2624;SDS011;1322;53.256;10.386;2024-02-26T04:15:06;6.93;;;6.07;;
2624;SDS011;1322;53.256;10.386;2024-02-26T04:17:35;6.77;;;5.80;;
2624;SDS011;1322;53.256;10.386;2024-02-26T04:20:02;8.20;;;5.63;;
2624;SDS011;1322;53.256;10.386;2024-02-26T04:22:30;6.20;;;5.13;;
2624;SDS011;1322;53.256;10.386;2024-02-26T04:24:56;6.83;;;5.43;;
2624;SDS011;1322;53.256;10.386;2024-02-26T04:27:21;6.60;;;5.53;;
2624;SDS011;1322;53.256;10.386;2024-02-26T04:29:47;6.33;;;5.60;;
2624;SDS011;1322;53.256;10.386;2024-02-26T04:32:13;8.63;;;6.50;;
2624;SDS011;1322;53.256;10.386;2024-02-26T04:34:38;7.27;;;5.43;;
2624;SDS011;1322;53.256;10.386;2024-02-26T04:37:04;6.33;;;5.73;;
2624;SDS011;1322;53.256;10.386;2024-02-26T04:39:29;7.87;;;6.60;;
2624;SDS011;1322;53.256;10.386;2024-02-26T04:41:55;9.30;;;5.80;;
2624;SDS011;1322;53.256;10.386;2024-02-26T04:44:20;10.53;;;6.90;;
2624;SDS011;1322;53.256;10.386;2024-02-26T04:46:46;8.57;;;5.80;;
2624;SDS011;1322;53.256;10.386;2024-02-26T04:49:12;6.23;;;5.50;;
2624;SDS011;1322;53.256;10.386;2024-02-26T04:51:37;9.57;;;5.97;;
2624;SDS011;1322;53.256;10.386;2024-02-26T04:54:03;10.60;;;7.10;;
2624;SDS011;1322;53.256;10.386;2024-02-26T04:56:29;8.37;;;5.90;;
2624;SDS011;1322;53.256;10.386;2024-02-26T04:58:54;7.00;;;5.70;;
2624;SDS011;1322;53.256;10.386;2024-02-26T05:01:20;7.10;;;6.40;;
2624;SDS011;1322;53.256;10.386;2024-02-26T05:03:45;8.10;;;5.83;;
2624;SDS011;1322;53.256;10.386;2024-02-26T05:06:11;7.30;;;5.67;;
2624;SDS011;1322;53.256;10.386;2024-02-26T05:08:38;7.83;;;5.90;;
2624;SDS011;1322;53.256;10.386;2024-02-26T05:11:04;6.80;;;6.10;;
2624;SDS011;1322;53.256;10.386;2024-02-26T05:13:29;6.33;;;4.90;;
2624;SDS011;1322;53.256;10.386;2024-02-26T05:15:55;5.83;;;5.20;;
2624;SDS011;1322;53.256;10.386;2024-02-26T05:18:24;6.57;;;5.80;;
2624;SDS011;1322;53.256;10.386;2024-02-26T05:20:50;6.87;;;5.53;;
2624;SDS011;1322;53.256;10.386;2024-02-26T05:23:15;5.93;;;5.20;;
2624;SDS011;1322;53.256;10.386;2024-02-26T05:25:41;7.00;;;6.03;;
2624;SDS011;1322;53.256;10.386;2024-02-26T05:28:06;7.00;;;5.87;;
2624;SDS011;1322;53.256;10.386;2024-02-26T05:30:32;7.50;;;5.93;;
2624;SDS011;1322;53.256;10.386;2024-02-26T05:32:58;7.00;;;6.30;;
2624;SDS011;1322;53.256;10.386;2024-02-26T05:35:24;14.20;;;10.07;;
2624;SDS011;1322;53.256;10.386;2024-02-26T05:37:50;9.30;;;7.33;;
2624;SDS011;1322;53.256;10.386;2024-02-26T05:40:16;8.23;;;6.00;;
2624;SDS011;1322;53.256;10.386;2024-02-26T05:42:42;7.60;;;6.10;;
2624;SDS011;1322;53.256;10.386;2024-02-26T05:45:09;8.03;;;5.90;;
2624;SDS011;1322;53.256;10.386;2024-02-26T05:47:35;10.83;;;6.33;;
2624;SDS011;1322;53.256;10.386;2024-02-26T05:50:01;11.10;;;6.03;;
2624;SDS011;1322;53.256;10.386;2024-02-26T05:52:27;8.90;;;5.93;;
2624;SDS011;1322;53.256;10.386;2024-02-26T05:54:54;7.90;;;6.03;;
2624;SDS011;1322;53.256;10.386;2024-02-26T05:57:20;6.90;;;6.30;;
2624;SDS011;1322;53.256;10.386;2024-02-26T05:59:46;9.40;;;6.63;;
2624;SDS011;1322;53.256;10.386;2024-02-26T06:02:11;8.50;;;6.50;;
2624;SDS011;1322;53.256;10.386;2024-02-26T06:04:37;8.23;;;6.73;;
2624;SDS011;1322;53.256;10.386;2024-02-26T06:07:03;12.13;;;8.60;;
2624;SDS011;1322;53.256;10.386;2024-02-26T06:09:30;7.90;;;6.40;;
2624;SDS011;1322;53.256;10.386;2024-02-26T06:11:55;6.43;;;5.83;;
2624;SDS011;1322;53.256;10.386;2024-02-26T06:14:21;7.97;;;6.60;;
2624;SDS011;1322;53.256;10.386;2024-02-26T06:16:47;6.23;;;5.43;;
2624;SDS011;1322;53.256;10.386;2024-02-26T06:19:19;7.70;;;5.90;;
2624;SDS011;1322;53.256;10.386;2024-02-26T06:21:50;7.73;;;5.40;;
2624;SDS011;1322;53.256;10.386;2024-02-26T06:24:16;6.50;;;5.10;;
2624;SDS011;1322;53.256;10.386;2024-02-26T06:26:41;9.93;;;7.40;;
2624;SDS011;1322;53.256;10.386;2024-02-26T06:29:07;6.27;;;5.43;;
2624;SDS011;1322;53.256;10.386;2024-02-26T06:31:33;5.90;;;5.30;;
2624;SDS011;1322;53.256;10.386;2024-02-26T06:33:58;6.33;;;4.70;;
2624;SDS011;1322;53.256;10.386;2024-02-26T06:36:24;5.93;;;5.20;;
2624;SDS011;1322;53.256;10.386;2024-02-26T06:38:50;6.83;;;5.77;;
2624;SDS011;1322;53.256;10.386;2024-02-26T06:41:18;6.20;;;4.70;;
2624;SDS011;1322;53.256;10.386;2024-02-26T06:43:44;7.00;;;5.00;;
2624;SDS011;1322;53.256;10.386;2024-02-26T06:46:10;4.60;;;4.20;;
2624;SDS011;1322;53.256;10.386;2024-02-26T06:48:37;6.47;;;5.10;;
2624;SDS011;1322;53.256;10.386;2024-02-26T06:51:02;5.10;;;4.53;;
2624;SDS011;1322;53.256;10.386;2024-02-26T06:53:28;5.60;;;5.10;;
2624;SDS011;1322;53.256;10.386;2024-02-26T06:55:54;6.80;;;5.40;;
2624;SDS011;1322;53.256;10.386;2024-02-26T06:58:20;5.73;;;4.90;;
2624;SDS011;1322;53.256;10.386;2024-02-26T07:00:45;7.33;;;5.17;;
2624;SDS011;1322;53.256;10.386;2024-02-26T07:03:11;6.40;;;5.30;;
2624;SDS011;1322;53.256;10.386;2024-02-26T07:05:38;8.20;;;5.80;;
2624;SDS011;1322;53.256;10.386;2024-02-26T07:08:05;5.33;;;4.83;;
2624;SDS011;1322;53.256;10.386;2024-02-26T07:10:31;7.30;;;5.87;;
2624;SDS011;1322;53.256;10.386;2024-02-26T07:12:57;7.03;;;5.87;;
2624;SDS011;1322;53.256;10.386;2024-02-26T07:15:23;6.33;;;5.47;;
2624;SDS011;1322;53.256;10.386;2024-02-26T07:17:49;6.93;;;4.90;;
2624;SDS011;1322;53.256;10.386;2024-02-26T07:20:15;11.60;;;5.37;;
2624;SDS011;1322;53.256;10.386;2024-02-26T07:22:43;5.70;;;5.17;;
2624;SDS011;1322;53.256;10.386;2024-02-26T07:25:08;5.87;;;5.27;;
2624;SDS011;1322;53.256;10.386;2024-02-26T07:27:38;6.57;;;5.37;;
2624;SDS011;1322;53.256;10.386;2024-02-26T07:30:06;6.13;;;5.63;;
2624;SDS011;1322;53.256;10.386;2024-02-26T07:32:34;5.10;;;4.53;;
2624;SDS011;1322;53.256;10.386;2024-02-26T07:34:59;6.00;;;5.13;;
2624;SDS011;1322;53.256;10.386;2024-02-26T07:37:25;6.00;;;4.90;;
2624;SDS011;1322;53.256;10.386;2024-02-26T07:39:51;5.77;;;5.10;;
2624;SDS011;1322;53.256;10.386;2024-02-26T07:42:18;5.83;;;4.50;;
2624;SDS011;1322;53.256;10.386;2024-02-26T07:44:44;5.40;;;4.90;;
2624;SDS011;1322;53.256;10.386;2024-02-26T07:47:09;6.17;;;5.57;;
2624;SDS011;1322;53.256;10.386;2024-02-26T07:49:35;5.23;;;4.73;;
2624;SDS011;1322;53.256;10.386;2024-02-26T07:52:01;6.23;;;5.07;;
2624;SDS011;1322;53.256;10.386;2024-02-26T07:54:26;4.97;;;4.47;;
2624;SDS011;1322;53.256;10.386;2024-02-26T07:56:52;5.50;;;4.93;;
2624;SDS011;1322;53.256;10.386;2024-02-26T07:59:17;7.43;;;4.93;;
2624;SDS011;1322;53.256;10.386;2024-02-26T08:01:43;8.00;;;5.30;;
2624;SDS011;1322;53.256;10.386;2024-02-26T08:04:09;5.20;;;4.70;;
2624;SDS011;1322;53.256;10.386;2024-02-26T08:06:34;5.17;;;4.60;;
2624;SDS011;1322;53.256;10.386;2024-02-26T08:09:00;5.30;;;4.80;;
2624;SDS011;1322;53.256;10.386;2024-02-26T08:11:26;5.27;;;4.53;;
2624;SDS011;1322;53.256;10.386;2024-02-26T08:13:53;5.73;;;4.90;;
2624;SDS011;1322;53.256;10.386;2024-02-26T08:16:18;7.90;;;5.10;;
2624;SDS011;1322;53.256;10.386;2024-02-26T08:18:44;5.83;;;5.20;;
2624;SDS011;1322;53.256;10.386;2024-02-26T08:21:09;5.47;;;4.97;;
2624;SDS011;1322;53.256;10.386;2024-02-26T08:23:35;5.30;;;4.80;;
2624;SDS011;1322;53.256;10.386;2024-02-26T08:26:01;5.10;;;4.60;;
2624;SDS011;1322;53.256;10.386;2024-02-26T08:28:26;6.03;;;4.47;;
2624;SDS011;1322;53.256;10.386;2024-02-26T08:30:52;5.30;;;4.80;;
2624;SDS011;1322;53.256;10.386;2024-02-26T08:33:17;5.83;;;4.37;;
2624;SDS011;1322;53.256;10.386;2024-02-26T08:35:43;5.23;;;4.30;;
2624;SDS011;1322;53.256;10.386;2024-02-26T08:38:09;5.00;;;4.50;;
2624;SDS011;1322;53.256;10.386;2024-02-26T08:40:35;5.93;;;5.33;;
2624;SDS011;1322;53.256;10.386;2024-02-26T08:43:01;5.40;;;4.60;;
2624;SDS011;1322;53.256;10.386;2024-02-26T08:45:26;6.63;;;4.73;;
2624;SDS011;1322;53.256;10.386;2024-02-26T08:47:52;5.43;;;4.90;;
2624;SDS011;1322;53.256;10.386;2024-02-26T08:50:17;5.70;;;5.20;;
2624;SDS011;1322;53.256;10.386;2024-02-26T08:52:43;5.80;;;4.77;;
2624;SDS011;1322;53.256;10.386;2024-02-26T08:55:13;5.37;;;4.83;;
2624;SDS011;1322;53.256;10.386;2024-02-26T08:57:39;5.97;;;4.80;;
2624;SDS011;1322;53.256;10.386;2024-02-26T09:00:05;6.00;;;5.40;;
2624;SDS011;1322;53.256;10.386;2024-02-26T09:02:31;4.93;;;4.47;;
2624;SDS011;1322;53.256;10.386;2024-02-26T09:04:57;6.43;;;5.83;;
2624;SDS011;1322;53.256;10.386;2024-02-26T09:07:22;4.90;;;4.20;;
2624;SDS011;1322;53.256;10.386;2024-02-26T09:09:48;6.33;;;5.33;;
2624;SDS011;1322;53.256;10.386;2024-02-26T09:12:14;5.80;;;5.30;;
2624;SDS011;1322;53.256;10.386;2024-02-26T09:14:39;6.33;;;5.70;;
2624;SDS011;1322;53.256;10.386;2024-02-26T09:17:05;6.53;;;5.83;;
2624;SDS011;1322;53.256;10.386;2024-02-26T09:19:32;6.23;;;5.63;;
2624;SDS011;1322;53.256;10.386;2024-02-26T09:21:58;6.53;;;4.93;;
2624;SDS011;1322;53.256;10.386;2024-02-26T09:24:24;6.07;;;5.47;;
2624;SDS011;1322;53.256;10.386;2024-02-26T09:26:50;8.13;;;5.80;;
2624;SDS011;1322;53.256;10.386;2024-02-26T09:29:16;6.67;;;5.70;;
2624;SDS011;1322;53.256;10.386;2024-02-26T09:31:42;5.47;;;4.90;;
2624;SDS011;1322;53.256;10.386;2024-02-26T09:34:08;6.47;;;5.60;;
2624;SDS011;1322;53.256;10.386;2024-02-26T09:36:34;6.63;;;6.00;;
2624;SDS011;1322;53.256;10.386;2024-02-26T09:39:00;7.40;;;5.80;;
2624;SDS011;1322;53.256;10.386;2024-02-26T09:41:27;6.37;;;5.67;;
2624;SDS011;1322;53.256;10.386;2024-02-26T09:43:56;6.50;;;5.80;;
2624;SDS011;1322;53.256;10.386;2024-02-26T09:46:25;7.27;;;6.17;;
2624;SDS011;1322;53.256;10.386;2024-02-26T09:48:51;7.03;;;6.00;;
2624;SDS011;1322;53.256;10.386;2024-02-26T09:51:17;7.00;;;6.30;;
2624;SDS011;1322;53.256;10.386;2024-02-26T09:53:45;7.53;;;6.40;;
2624;SDS011;1322;53.256;10.386;2024-02-26T09:56:12;8.20;;;5.60;;
2624;SDS011;1322;53.256;10.386;2024-02-26T09:58:38;5.67;;;5.17;;
2624;SDS011;1322;53.256;10.386;2024-02-26T10:01:08;6.87;;;5.20;;
2624;SDS011;1322;53.256;10.386;2024-02-26T10:03:39;6.30;;;4.87;;
2624;SDS011;1322;53.256;10.386;2024-02-26T10:06:07;8.10;;;6.00;;
2624;SDS011;1322;53.256;10.386;2024-02-26T10:08:33;6.57;;;5.97;;
2624;SDS011;1322;53.256;10.386;2024-02-26T10:11:00;7.30;;;5.57;;
2624;SDS011;1322;53.256;10.386;2024-02-26T10:13:26;6.93;;;5.80;;
2624;SDS011;1322;53.256;10.386;2024-02-26T10:15:52;5.87;;;5.00;;
2624;SDS011;1322;53.256;10.386;2024-02-26T10:18:18;6.80;;;6.20;;
2624;SDS011;1322;53.256;10.386;2024-02-26T10:20:58;5.07;;;4.57;;
2624;SDS011;1322;53.256;10.386;2024-02-26T10:23:26;8.57;;;5.27;;
2624;SDS011;1322;53.256;10.386;2024-02-26T10:25:52;7.63;;;5.60;;
2624;SDS011;1322;53.256;10.386;2024-02-26T10:28:22;7.17;;;6.27;;
2624;SDS011;1322;53.256;10.386;2024-02-26T10:30:48;9.83;;;4.80;;
2624;SDS011;1322;53.256;10.386;2024-02-26T10:33:14;6.20;;;4.80;;
2624;SDS011;1322;53.256;10.386;2024-02-26T10:35:45;4.83;;;4.40;;
2624;SDS011;1322;53.256;10.386;2024-02-26T10:38:13;6.80;;;6.17;;
2624;SDS011;1322;53.256;10.386;2024-02-26T10:40:42;5.63;;;4.73;;
2624;SDS011;1322;53.256;10.386;2024-02-26T10:43:08;5.63;;;4.93;;
2624;SDS011;1322;53.256;10.386;2024-02-26T10:45:33;5.30;;;4.80;;
2624;SDS011;1322;53.256;10.386;2024-02-26T10:48:00;6.47;;;5.37;;
2624;SDS011;1322;53.256;10.386;2024-02-26T10:50:25;5.50;;;4.30;;
2624;SDS011;1322;53.256;10.386;2024-02-26T10:52:51;6.93;;;4.97;;
2624;SDS011;1322;53.256;10.386;2024-02-26T10:55:20;10.40;;;6.00;;
2624;SDS011;1322;53.256;10.386;2024-02-26T10:57:47;7.73;;;4.90;;
2624;SDS011;1322;53.256;10.386;2024-02-26T11:00:15;6.70;;;5.93;;
2624;SDS011;1322;53.256;10.386;2024-02-26T11:02:41;5.50;;;4.13;;
2624;SDS011;1322;53.256;10.386;2024-02-26T11:05:09;6.30;;;4.67;;
2624;SDS011;1322;53.256;10.386;2024-02-26T11:07:37;4.93;;;4.50;;
2624;SDS011;1322;53.256;10.386;2024-02-26T11:10:04;4.90;;;4.40;;
2624;SDS011;1322;53.256;10.386;2024-02-26T11:12:34;6.57;;;4.47;;
2624;SDS011;1322;53.256;10.386;2024-02-26T11:15:02;5.80;;;4.70;;
2624;SDS011;1322;53.256;10.386;2024-02-26T11:17:29;10.27;;;4.10;;
2624;SDS011;1322;53.256;10.386;2024-02-26T11:19:58;5.50;;;4.50;;
2624;SDS011;1322;53.256;10.386;2024-02-26T11:22:24;5.23;;;4.53;;
2624;SDS011;1322;53.256;10.386;2024-02-26T11:24:54;4.80;;;4.40;;
2624;SDS011;1322;53.256;10.386;2024-02-26T11:27:23;5.07;;;4.63;;
2624;SDS011;1322;53.256;10.386;2024-02-26T11:29:54;7.77;;;4.27;;
2624;SDS011;1322;53.256;10.386;2024-02-26T11:32:24;9.60;;;4.60;;
2624;SDS011;1322;53.256;10.386;2024-02-26T11:34:52;4.47;;;4.07;;
2624;SDS011;1322;53.256;10.386;2024-02-26T11:37:19;4.43;;;4.03;;
2624;SDS011;1322;53.256;10.386;2024-02-26T11:39:45;5.43;;;3.90;;
2624;SDS011;1322;53.256;10.386;2024-02-26T11:42:13;7.00;;;4.60;;
2624;SDS011;1322;53.256;10.386;2024-02-26T11:44:40;4.90;;;4.27;;
2624;SDS011;1322;53.256;10.386;2024-02-26T11:47:13;6.37;;;3.67;;
2624;SDS011;1322;53.256;10.386;2024-02-26T11:49:43;4.07;;;3.67;;
2624;SDS011;1322;53.256;10.386;2024-02-26T11:52:10;4.57;;;3.80;;
2624;SDS011;1322;53.256;10.386;2024-02-26T12:00:11;5.83;;;4.10;;
2624;SDS011;1322;53.256;10.386;2024-02-26T12:05:12;6.27;;;3.87;;
2624;SDS011;1322;53.256;10.386;2024-02-26T12:07:45;3.53;;;3.23;;
2624;SDS011;1322;53.256;10.386;2024-02-26T12:10:16;4.77;;;3.50;;
2624;SDS011;1322;53.256;10.386;2024-02-26T12:13:04;3.43;;;3.13;;
2624;SDS011;1322;53.256;10.386;2024-02-26T12:15:33;4.17;;;3.53;;
2624;SDS011;1322;53.256;10.386;2024-02-26T12:18:03;5.27;;;3.60;;
2624;SDS011;1322;53.256;10.386;2024-02-26T12:20:30;3.37;;;3.07;;
2624;SDS011;1322;53.256;10.386;2024-02-26T12:22:56;4.43;;;2.70;;
2624;SDS011;1322;53.256;10.386;2024-02-26T12:25:24;3.53;;;3.23;;
2624;SDS011;1322;53.256;10.386;2024-02-26T12:27:52;3.67;;;3.20;;
2624;SDS011;1322;53.256;10.386;2024-02-26T12:30:18;4.37;;;3.67;;
2624;SDS011;1322;53.256;10.386;2024-02-26T12:32:44;4.20;;;3.70;;
2624;SDS011;1322;53.256;10.386;2024-02-26T12:35:17;3.40;;;3.03;;
2624;SDS011;1322;53.256;10.386;2024-02-26T12:37:43;3.87;;;3.20;;
2624;SDS011;1322;53.256;10.386;2024-02-26T12:40:10;3.60;;;3.30;;
2624;SDS011;1322;53.256;10.386;2024-02-26T12:42:36;4.80;;;3.57;;
2624;SDS011;1322;53.256;10.386;2024-02-26T12:45:06;5.50;;;3.93;;
2624;SDS011;1322;53.256;10.386;2024-02-26T12:50:06;3.50;;;3.03;;
2624;SDS011;1322;53.256;10.386;2024-02-26T12:52:38;3.70;;;3.40;;
2624;SDS011;1322;53.256;10.386;2024-02-26T12:55:05;4.43;;;4.00;;
2624;SDS011;1322;53.256;10.386;2024-02-26T12:57:38;4.47;;;3.60;;
2624;SDS011;1322;53.256;10.386;2024-02-26T13:00:06;4.00;;;3.33;;
2624;SDS011;1322;53.256;10.386;2024-02-26T13:02:34;3.43;;;3.13;;
2624;SDS011;1322;53.256;10.386;2024-02-26T13:05:03;3.47;;;3.17;;
2624;SDS011;1322;53.256;10.386;2024-02-26T13:07:30;4.53;;;3.37;;
2624;SDS011;1322;53.256;10.386;2024-02-26T13:09:55;5.43;;;3.33;;
2624;SDS011;1322;53.256;10.386;2024-02-26T13:12:21;2.77;;;2.57;;
2624;SDS011;1322;53.256;10.386;2024-02-26T13:14:48;3.43;;;3.13;;
2624;SDS011;1322;53.256;10.386;2024-02-26T13:17:24;3.67;;;2.97;;
2624;SDS011;1322;53.256;10.386;2024-02-26T13:19:52;3.83;;;3.43;;
2624;SDS011;1322;53.256;10.386;2024-02-26T13:22:20;4.90;;;4.20;;
2624;SDS011;1322;53.256;10.386;2024-02-26T13:24:53;6.47;;;4.90;;
2624;SDS011;1322;53.256;10.386;2024-02-26T13:27:22;3.70;;;2.73;;
2624;SDS011;1322;53.256;10.386;2024-02-26T13:30:03;4.07;;;3.30;;
2624;SDS011;1322;53.256;10.386;2024-02-26T13:32:31;5.40;;;3.53;;
2624;SDS011;1322;53.256;10.386;2024-02-26T13:35:08;3.97;;;3.30;;
2624;SDS011;1322;53.256;10.386;2024-02-26T13:37:35;3.60;;;3.30;;
2624;SDS011;1322;53.256;10.386;2024-02-26T13:40:05;5.90;;;3.87;;
2624;SDS011;1322;53.256;10.386;2024-02-26T13:42:30;5.00;;;3.70;;
2624;SDS011;1322;53.256;10.386;2024-02-26T13:44:56;4.83;;;3.17;;
2624;SDS011;1322;53.256;10.386;2024-02-26T13:47:22;5.53;;;4.40;;
2624;SDS011;1322;53.256;10.386;2024-02-26T13:49:47;5.67;;;3.60;;
2624;SDS011;1322;53.256;10.386;2024-02-26T13:52:13;5.37;;;3.70;;
2624;SDS011;1322;53.256;10.386;2024-02-26T13:54:39;5.20;;;4.30;;
2624;SDS011;1322;53.256;10.386;2024-02-26T13:57:05;4.50;;;3.60;;
2624;SDS011;1322;53.256;10.386;2024-02-26T13:59:31;4.47;;;3.83;;
2624;SDS011;1322;53.256;10.386;2024-02-26T14:01:58;5.27;;;4.50;;
2624;SDS011;1322;53.256;10.386;2024-02-26T14:04:24;5.13;;;3.83;;
2624;SDS011;1322;53.256;10.386;2024-02-26T14:06:50;4.87;;;4.20;;
2624;SDS011;1322;53.256;10.386;2024-02-26T14:09:16;4.73;;;4.30;;
2624;SDS011;1322;53.256;10.386;2024-02-26T14:11:44;6.03;;;5.40;;
2624;SDS011;1322;53.256;10.386;2024-02-26T14:14:10;5.83;;;5.00;;
2624;SDS011;1322;53.256;10.386;2024-02-26T14:16:36;5.57;;;4.97;;
2624;SDS011;1322;53.256;10.386;2024-02-26T14:19:01;5.80;;;5.20;;
2624;SDS011;1322;53.256;10.386;2024-02-26T14:21:28;7.43;;;5.27;;
2624;SDS011;1322;53.256;10.386;2024-02-26T14:23:54;7.67;;;5.53;;
2624;SDS011;1322;53.256;10.386;2024-02-26T14:26:21;6.47;;;5.37;;
2624;SDS011;1322;53.256;10.386;2024-02-26T14:28:49;6.00;;;4.73;;
2624;SDS011;1322;53.256;10.386;2024-02-26T14:31:18;5.67;;;5.07;;
2624;SDS011;1322;53.256;10.386;2024-02-26T14:33:44;5.43;;;4.93;;
2624;SDS011;1322;53.256;10.386;2024-02-26T14:36:10;8.17;;;5.33;;
2624;SDS011;1322;53.256;10.386;2024-02-26T14:38:37;8.73;;;5.43;;
2624;SDS011;1322;53.256;10.386;2024-02-26T14:41:04;8.00;;;5.97;;
2624;SDS011;1322;53.256;10.386;2024-02-26T14:43:30;7.70;;;5.73;;
2624;SDS011;1322;53.256;10.386;2024-02-26T14:45:57;6.30;;;5.70;;
2624;SDS011;1322;53.256;10.386;2024-02-26T14:48:24;7.17;;;5.50;;
2624;SDS011;1322;53.256;10.386;2024-02-26T14:50:49;5.80;;;5.03;;
2624;SDS011;1322;53.256;10.386;2024-02-26T14:53:15;7.70;;;6.27;;
2624;SDS011;1322;53.256;10.386;2024-02-26T14:55:42;7.30;;;6.50;;
2624;SDS011;1322;53.256;10.386;2024-02-26T14:58:08;8.53;;;6.80;;
2624;SDS011;1322;53.256;10.386;2024-02-26T15:00:38;8.47;;;7.53;;
2624;SDS011;1322;53.256;10.386;2024-02-26T15:03:04;10.77;;;8.77;;
2624;SDS011;1322;53.256;10.386;2024-02-26T15:05:30;11.20;;;7.77;;
2624;SDS011;1322;53.256;10.386;2024-02-26T15:07:56;10.47;;;8.23;;